Time;durP1;ratioP1;P1;durP2;ratioP2;P2;SDS_P1;SDS_P2;PMS_P1;PMS_P2;Temp;Humidity;BMP_temperature;BMP_pressure;BME280_temperature;BME280_humidity;BME280_pressure;Samples;Min_cycle;Max_cycle;Signal;HPM_P1;HPM_P2
2022/10/04 00:01:48;;;;;;;1.50;1.40;;;;;;;9.59;89.82;96182.75;4364655;32;20224;-61
2022/10/04 00:04:34;;;;;;;1.00;1.00;;;;;;;9.54;89.93;96177.50;4359378;32;20191;-60
2022/10/04 00:07:11;;;;;;;2.20;1.37;;;;;;;9.59;89.95;96174.03;4384605;32;20188;-61
2022/10/04 00:10:00;;;;;;;1.50;1.03;;;;;;;9.64;89.80;96169.53;4395282;32;20200;-61
2022/10/04 00:13:14;;;;;;;1.13;1.13;;;;;;;9.42;91.06;96184.09;4387566;32;20184;-61
2022/10/04 00:15:41;;;;;;;2.50;1.87;;;;;;;9.49;91.19;96181.97;4340536;32;20239;-61
2022/10/04 00:18:40;;;;;;;2.13;1.93;;;;;;;9.61;90.87;96183.28;4317010;32;20217;-61
2022/10/04 00:21:08;;;;;;;0.87;0.87;;;;;;;9.74;90.91;96173.25;4294475;32;20185;-63
2022/10/04 00:23:43;;;;;;;1.33;1.30;;;;;;;9.68;90.82;96169.00;4332042;32;20198;-60
2022/10/04 00:26:40;;;;;;;2.00;1.90;;;;;;;9.74;90.28;96165.28;4328530;32;20203;-61
2022/10/04 00:29:35;;;;;;;2.03;1.73;;;;;;;9.81;90.30;96168.44;4318315;32;20209;-61
2022/10/04 00:32:12;;;;;;;2.40;2.20;;;;;;;9.90;89.68;96161.56;4320210;32;20186;-63
2022/10/04 00:34:48;;;;;;;2.33;2.23;;;;;;;9.74;90.46;96167.94;4327095;32;20286;-61
2022/10/04 00:37:18;;;;;;;1.37;1.37;;;;;;;9.78;90.46;96164.47;4347970;32;20192;-61
2022/10/04 00:39:46;;;;;;;1.13;1.13;;;;;;;9.79;90.47;96165.25;4320662;33;20213;-61
2022/10/04 00:42:40;;;;;;;0.70;0.70;;;;;;;9.84;90.20;96165.25;4311433;33;20220;-61
2022/10/04 00:45:26;;;;;;;0.70;0.70;;;;;;;9.87;89.41;96172.69;4350167;32;20192;-61
2022/10/04 00:48:10;;;;;;;1.17;1.17;;;;;;;9.66;89.90;96171.91;4384216;32;20214;-61
2022/10/04 00:51:00;;;;;;;1.50;1.40;;;;;;;9.51;91.24;96153.38;4381034;32;20188;-60
2022/10/04 00:53:51;;;;;;;1.23;1.23;;;;;;;9.44;91.35;96151.00;4387086;32;20210;-61
2022/10/04 00:56:33;;;;;;;0.90;0.90;;;;;;;9.42;91.06;96152.31;4393827;32;20187;-61
2022/10/04 00:59:21;;;;;;;0.93;0.83;;;;;;;9.67;89.51;96140.91;4365186;32;20185;-61
2022/10/04 01:01:53;;;;;;;0.97;0.83;;;;;;;9.55;89.73;96144.66;4390043;32;20192;-60
2022/10/04 01:04:41;;;;;;;1.17;1.17;;;;;;;9.33;90.16;96151.25;4357139;32;20274;-61
2022/10/04 01:07:10;;;;;;;1.00;0.97;;;;;;;9.50;90.15;96147.28;4390049;32;20184;-60
2022/10/04 01:09:50;;;;;;;1.07;1.07;;;;;;;9.40;89.65;96147.28;4378402;32;20249;-61
2022/10/04 01:12:45;;;;;;;0.80;0.80;;;;;;;9.36;90.29;96143.56;4370449;32;20207;-60
2022/10/04 01:15:42;;;;;;;1.20;1.00;;;;;;;9.19;90.46;96145.69;4368661;32;20329;-61
2022/10/04 01:18:10;;;;;;;0.87;0.87;;;;;;;9.37;90.13;96141.72;4384167;32;20188;-61
2022/10/04 01:20:53;;;;;;;3.13;1.20;;;;;;;9.33;90.15;96146.78;4382628;32;20188;-61
2022/10/04 01:23:43;;;;;;;0.97;0.97;;;;;;;9.09;91.06;96138.53;4358989;32;20218;-61
2022/10/04 01:26:36;;;;;;;0.57;0.57;;;;;;;9.16;90.81;96146.19;4382335;32;20187;-61
2022/10/04 01:29:17;;;;;;;0.73;0.73;;;;;;;9.16;90.60;96140.91;4381340;32;20216;-61
2022/10/04 01:31:49;;;;;;;0.97;0.97;;;;;;;9.17;90.49;96138.00;4384654;32;20275;-61
2022/10/04 01:34:28;;;;;;;1.23;1.23;;;;;;;9.14;90.25;96132.47;4381515;32;20324;-61
2022/10/04 01:36:58;;;;;;;0.80;0.80;;;;;;;9.10;90.46;96126.09;4388987;32;20188;-61
2022/10/04 01:39:27;;;;;;;1.43;1.33;;;;;;;9.11;90.46;96127.69;4377633;32;20204;-61
2022/10/04 01:42:04;;;;;;;0.93;0.50;;;;;;;9.04;90.35;96127.16;4389405;32;20180;-61
2022/10/04 01:44:54;;;;;;;0.60;0.60;;;;;;;9.28;89.15;96133.53;4388478;32;20191;-63
2022/10/04 01:47:30;;;;;;;0.90;0.90;;;;;;;9.04;89.75;96127.16;4401858;32;20230;-60
2022/10/04 01:50:01;;;;;;;0.83;0.83;;;;;;;9.09;89.61;96124.50;4392056;32;20206;-60
2022/10/04 01:52:34;;;;;;;0.80;0.80;;;;;;;8.92;89.46;96128.19;4368805;32;20189;-60
2022/10/04 01:55:08;;;;;;;0.90;0.90;;;;;;;8.93;89.69;96116.56;4390809;32;20194;-61
2022/10/04 01:57:46;;;;;;;1.00;0.90;;;;;;;8.91;90.26;96113.37;4393834;32;20247;-61
2022/10/04 02:00:14;;;;;;;1.07;1.00;;;;;;;8.87;90.29;96112.31;4373874;32;20238;-61
2022/10/04 02:03:02;;;;;;;1.30;1.30;;;;;;;8.92;90.10;96100.94;4366834;32;20233;-61
2022/10/04 02:05:41;;;;;;;0.87;0.87;;;;;;;8.90;90.26;96101.22;4399433;32;20221;-60
2022/10/04 02:08:23;;;;;;;2.73;0.87;;;;;;;8.89;90.03;96096.19;4366802;32;20204;-60
2022/10/04 02:11:15;;;;;;;0.70;0.70;;;;;;;8.98;89.60;96085.84;4402557;32;20213;-60
2022/10/04 02:13:45;;;;;;;0.67;0.67;;;;;;;8.81;89.22;96089.53;4382556;32;20252;-60
2022/10/04 02:16:12;;;;;;;0.83;0.83;;;;;;;8.87;89.45;96095.62;4392500;32;20199;-60
2022/10/04 02:18:42;;;;;;;0.93;0.93;;;;;;;8.85;89.44;96093.25;4384140;32;20185;-60
2022/10/04 02:21:20;;;;;;;0.83;0.83;;;;;;;8.88;89.59;96092.72;4362506;32;20263;-61
2022/10/04 02:23:48;;;;;;;1.50;1.03;;;;;;;8.60;89.15;96094.00;4405535;32;20238;-61
2022/10/04 02:26:14;;;;;;;0.60;0.60;;;;;;;8.56;89.80;96097.41;4361517;32;20304;-60
2022/10/04 02:28:40;;;;;;;0.57;0.57;;;;;;;8.53;90.29;96100.59;4369278;32;20181;-60
2022/10/04 02:33:57;;;;;;;1.10;1.10;;;;;;;8.62;89.35;96083.16;4388870;32;20225;-63
2022/10/04 02:36:34;;;;;;;0.93;0.93;;;;;;;8.52;88.67;96080.50;4379549;32;20329;-60
2022/10/04 02:39:15;;;;;;;0.93;0.93;;;;;;;8.29;89.15;96079.09;4393144;32;20282;-60
2022/10/04 02:42:07;;;;;;;0.70;0.70;;;;;;;8.30;89.52;96090.47;4397685;32;20280;-60
2022/10/04 02:44:45;;;;;;;0.33;0.33;;;;;;;8.26;89.61;96096.25;4396362;32;20276;-61
2022/10/04 02:47:29;;;;;;;0.67;0.67;;;;;;;8.42;88.99;96102.41;4389820;32;20283;-61
2022/10/04 02:50:11;;;;;;;1.07;1.07;;;;;;;8.36;88.96;96106.09;4388282;32;20271;-61
2022/10/04 02:52:43;;;;;;;1.37;1.27;;;;;;;8.24;89.61;96093.09;4394160;32;20346;-60
2022/10/04 02:55:28;;;;;;;0.60;0.60;;;;;;;8.31;89.97;96097.34;4382974;32;20276;-60
2022/10/04 02:57:57;;;;;;;1.30;1.30;;;;;;;8.21;90.43;96098.87;4383177;32;20322;-60
2022/10/04 03:00:52;;;;;;;0.30;0.30;;;;;;;8.19;90.66;96095.69;4348687;32;20302;-60
2022/10/04 03:03:23;;;;;;;0.33;0.33;;;;;;;8.38;90.00;96095.25;4395127;32;20279;-61
2022/10/04 03:05:57;;;;;;;0.97;0.97;;;;;;;8.36;89.44;96108.72;4373759;32;20333;-60
2022/10/04 03:08:24;;;;;;;1.03;1.03;;;;;;;8.35;89.13;96090.47;4384913;32;20312;-61
2022/10/04 03:10:51;;;;;;;0.90;0.90;;;;;;;8.36;89.45;96078.84;4366936;32;20282;-61
2022/10/04 03:13:20;;;;;;;0.40;0.40;;;;;;;8.22;89.58;96083.81;4373724;32;20264;-60
2022/10/04 03:15:57;;;;;;;0.60;0.50;;;;;;;8.25;89.64;96084.09;4382527;32;20311;-61
2022/10/04 03:18:25;;;;;;;0.63;0.63;;;;;;;8.33;89.81;96084.66;4318150;32;20293;-63
2022/10/04 03:20:52;;;;;;;0.03;0.03;;;;;;;8.19;89.92;96087.78;4373633;32;20303;-60
2022/10/04 03:23:20;;;;;;;0.20;0.20;;;;;;;8.24;89.74;96087.00;4387250;32;20280;-60
2022/10/04 03:26:34;;;;;;;0.67;0.67;;;;;;;8.12;89.73;96084.56;4384239;32;20276;-60
2022/10/04 03:29:01;;;;;;;0.40;0.40;;;;;;;8.25;89.31;96083.31;4373046;32;20272;-60
2022/10/04 03:31:32;;;;;;;1.03;0.80;;;;;;;8.16;89.47;96083.00;4386957;32;20337;-60
2022/10/04 03:34:00;;;;;;;0.87;0.87;;;;;;;8.03;90.02;96074.75;4394906;32;20280;-60
2022/10/04 03:36:30;;;;;;;0.83;0.83;;;;;;;7.88;90.24;96080.78;4386147;32;20307;-61
2022/10/04 03:39:09;;;;;;;1.23;1.10;;;;;;;7.84;90.00;96077.06;4392983;32;20296;-61
2022/10/04 03:41:41;;;;;;;0.57;0.57;;;;;;;7.79;90.47;96083.09;4365409;32;20311;-61
2022/10/04 03:44:17;;;;;;;0.97;0.97;;;;;;;8.05;89.97;96091.94;4391484;32;20264;-61
2022/10/04 03:46:45;;;;;;;0.57;0.57;;;;;;;7.91;90.75;96091.59;4396914;32;20381;-60
2022/10/04 03:49:19;;;;;;;0.57;0.57;;;;;;;7.86;90.34;96090.81;4340908;32;20281;-60
2022/10/04 03:52:15;;;;;;;0.70;0.70;;;;;;;7.80;90.66;96086.53;4357865;32;20294;-61
2022/10/04 03:54:42;;;;;;;0.73;0.73;;;;;;;7.83;90.65;96086.03;4372469;32;20313;-61
2022/10/04 03:57:11;;;;;;;0.57;0.57;;;;;;;7.59;90.95;96085.63;4397744;32;20295;-60
2022/10/04 03:59:37;;;;;;;0.80;0.80;;;;;;;7.31;91.86;96081.47;4362100;32;20312;-60
2022/10/04 04:02:17;;;;;;;0.10;0.10;;;;;;;7.52;92.16;96083.19;4397444;32;20275;-61
2022/10/04 04:05:02;;;;;;;0.50;0.50;;;;;;;7.57;91.66;96087.72;4399702;32;20371;-60
2022/10/04 04:07:31;;;;;;;3.10;1.00;;;;;;;7.59;90.98;96089.06;4372408;32;20287;-60
2022/10/04 04:10:23;;;;;;;0.23;0.23;;;;;;;7.63;90.87;96091.19;4396411;32;20290;-61
2022/10/04 04:12:57;;;;;;;0.50;0.50;;;;;;;7.46;91.47;96088.72;4361800;32;20280;-61
2022/10/04 04:15:29;;;;;;;0.07;0.07;;;;;;;7.66;91.72;96088.06;4371557;32;20363;-60
2022/10/04 04:17:59;;;;;;;0.50;0.50;;;;;;;7.64;91.19;96082.22;4373237;32;20283;-61
2022/10/04 04:20:40;;;;;;;0.57;0.57;;;;;;;7.70;91.55;96081.19;4393037;32;20344;-60
2022/10/04 04:23:54;;;;;;;0.60;0.60;;;;;;;7.88;90.05;96084.22;4380524;32;20277;-61
2022/10/04 04:26:49;;;;;;;0.40;0.40;;;;;;;7.83;89.56;96086.03;4383590;32;20299;-60
2022/10/04 04:29:27;;;;;;;0.67;0.67;;;;;;;7.68;90.44;96078.03;4365714;32;20331;-61
2022/10/04 04:32:22;;;;;;;0.43;0.40;;;;;;;7.67;90.89;96076.44;4364750;32;20280;-61
2022/10/04 04:34:59;;;;;;;0.40;0.40;;;;;;;7.76;90.26;96080.97;4388194;32;20374;-60
2022/10/04 04:37:25;;;;;;;0.60;0.60;;;;;;;7.70;90.51;96086.47;4394983;32;20280;-60
2022/10/04 04:39:55;;;;;;;1.50;0.60;;;;;;;7.90;90.25;96092.66;4362628;32;20292;-60
2022/10/04 04:42:31;;;;;;;0.93;0.70;;;;;;;7.88;90.15;96089.50;4379920;32;20185;-60
2022/10/04 04:45:17;;;;;;;0.20;0.20;;;;;;;7.89;89.68;96100.88;4393399;32;20271;-61
2022/10/04 04:47:50;;;;;;;0.77;0.77;;;;;;;7.81;90.29;96093.41;4393871;32;20390;-60
2022/10/04 04:50:22;;;;;;;2.93;0.90;;;;;;;7.81;90.61;96088.12;4401378;32;20272;-61
2022/10/04 04:53:14;;;;;;;1.00;1.00;;;;;;;7.64;90.86;96083.03;4378272;32;20277;-61
2022/10/04 04:55:48;;;;;;;0.20;0.20;;;;;;;7.72;90.98;96089.66;4383043;32;20382;-60
2022/10/04 04:58:21;;;;;;;0.40;0.40;;;;;;;7.66;91.64;96082.78;4367650;32;20291;-60
2022/10/04 05:01:17;;;;;;;0.57;0.50;;;;;;;7.88;90.89;96081.56;4375372;32;20275;-60
2022/10/04 05:03:59;;;;;;;0.53;0.53;;;;;;;7.82;90.52;96084.44;4375024;32;20351;-60
2022/10/04 05:06:26;;;;;;;0.30;0.30;;;;;;;7.80;90.45;96081.25;4372844;32;20390;-60
2022/10/04 05:08:51;;;;;;;0.60;0.60;;;;;;;7.80;89.95;96086.53;4395848;32;20294;-60
2022/10/04 05:11:38;;;;;;;0.70;0.70;;;;;;;7.86;90.28;96085.53;4387675;32;20288;-60
2022/10/04 05:14:14;;;;;;;0.57;0.57;;;;;;;7.82;90.68;96073.88;4387013;32;20256;-60
2022/10/04 05:17:06;;;;;;;0.30;0.30;;;;;;;7.84;90.10;96083.13;4400818;32;20284;-60
2022/10/04 05:19:38;;;;;;;1.43;0.87;;;;;;;7.93;90.54;96092.16;4388171;32;20318;-60
2022/10/04 05:22:10;;;;;;;0.60;0.60;;;;;;;7.93;89.67;96094.00;4382353;32;20344;-60
2022/10/04 05:24:45;;;;;;;0.63;0.63;;;;;;;8.03;89.47;96090.63;4386806;32;20393;-63
2022/10/04 05:27:25;;;;;;;0.80;0.80;;;;;;;7.94;90.15;96082.38;4378050;32;20280;-61
2022/10/04 05:30:13;;;;;;;0.60;0.60;;;;;;;7.97;89.62;96081.88;4383566;32;20280;-60
2022/10/04 05:33:17;;;;;;;0.40;0.40;;;;;;;7.84;89.67;96092.91;4379335;32;20333;-60
2022/10/04 05:36:10;;;;;;;0.37;0.37;;;;;;;8.06;89.88;96090.09;4398386;32;20362;-60
2022/10/04 05:39:25;;;;;;;1.07;1.07;;;;;;;8.07;89.88;96100.41;4384174;32;20276;-60
2022/10/04 05:42:00;;;;;;;0.73;0.73;;;;;;;8.18;89.41;96091.47;4379798;32;20303;-60
2022/10/04 05:44:50;;;;;;;0.63;0.63;;;;;;;8.24;89.29;96082.50;4375023;32;20284;-60
2022/10/04 05:47:27;;;;;;;0.70;0.70;;;;;;;8.00;89.56;96089.28;4363637;32;20279;-60
2022/10/04 05:49:58;;;;;;;0.40;0.40;;;;;;;8.01;90.10;96067.09;4373989;32;20288;-60
2022/10/04 05:52:29;;;;;;;0.40;0.40;;;;;;;8.26;88.72;96074.31;4382218;32;20315;-60
2022/10/04 05:55:42;;;;;;;0.50;0.50;;;;;;;8.18;88.80;96080.88;4405398;32;20302;-60
2022/10/04 05:58:44;;;;;;;0.37;0.37;;;;;;;8.08;89.07;96082.72;4331719;32;20364;-60
2022/10/04 06:01:58;;;;;;;0.40;0.40;;;;;;;8.08;89.32;96080.88;4403033;32;20271;-60
2022/10/04 06:04:48;;;;;;;0.27;0.27;;;;;;;7.97;90.09;96079.22;4298112;33;20361;-60
2022/10/04 06:07:21;;;;;;;0.90;0.90;;;;;;;7.98;90.33;96088.72;4301505;32;20373;-60
2022/10/04 06:10:01;;;;;;;7.77;3.73;;;;;;;8.16;90.23;96088.28;4298622;33;20364;-52
2022/10/04 06:12:56;;;;;;;4.50;2.27;;;;;;;10.64;100.00;96082.00;4323902;32;20342;-51
2022/10/04 06:15:45;;;;;;;4.80;1.90;;;;;;;12.47;100.00;96087.53;4276545;33;20186;-47
2022/10/04 06:18:39;;;;;;;1.13;1.13;;;;;;;12.95;100.00;96091.63;4315030;32;20237;-52
2022/10/04 06:21:24;;;;;;;1.13;1.13;;;;;;;13.34;93.16;96082.53;4318133;32;20243;-53
2022/10/04 06:24:16;;;;;;;0.97;0.97;;;;;;;13.92;79.00;96069.53;4329429;32;20185;-54
2022/10/04 06:27:18;;;;;;;0.53;0.53;;;;;;;14.06;75.67;96078.31;4287530;33;20265;-54
2022/10/04 06:29:57;;;;;;;0.80;0.80;;;;;;;14.29;73.42;96070.41;4333672;32;20197;-52
2022/10/04 06:33:00;;;;;;;0.60;0.60;;;;;;;14.13;72.55;96080.63;4366728;32;20223;-54
2022/10/04 06:35:42;;;;;;;0.83;0.83;;;;;;;14.28;71.06;96076.84;4364685;32;20241;-52
2022/10/04 06:39:05;;;;;;;1.20;1.10;;;;;;;14.18;71.72;96083.16;4379582;32;20253;-53
2022/10/04 06:42:02;;;;;;;1.10;1.10;;;;;;;14.32;70.97;96086.62;4385898;32;20179;-54
2022/10/04 06:44:40;;;;;;;0.80;0.80;;;;;;;14.42;69.26;96091.78;4417881;32;20203;-51
2022/10/04 06:47:40;;;;;;;0.73;0.73;;;;;;;14.35;70.11;96093.22;4400180;32;20207;-55
2022/10/04 06:50:53;;;;;;;0.50;0.50;;;;;;;14.23;70.04;96083.06;4368057;32;20251;-50
2022/10/04 06:53:30;;;;;;;0.53;0.53;;;;;;;14.32;69.39;96080.50;4390750;32;20243;-61
2022/10/04 06:56:33;;;;;;;1.23;1.13;;;;;;;13.59;68.64;96084.00;4396929;32;20180;-61
2022/10/04 06:59:30;;;;;;;0.83;0.83;;;;;;;12.36;72.87;96092.97;4336889;32;20192;-61
2022/10/04 07:02:02;;;;;;;0.90;0.90;;;;;;;11.53;77.14;96093.31;4378241;32;20309;-62
2022/10/04 07:04:49;;;;;;;1.07;1.07;;;;;;;11.24;79.67;96085.31;4405187;32;20223;-62
2022/10/04 07:07:49;;;;;;;5.20;0.80;;;;;;;11.11;80.73;96077.19;4384741;32;20254;-60
2022/10/04 07:10:39;;;;;;;0.60;0.60;;;;;;;10.39;84.44;96079.50;4335647;32;20189;-61
2022/10/04 07:13:15;;;;;;;1.73;1.63;;;;;;;10.23;86.43;96083.28;4386416;32;20223;-62
2022/10/04 07:16:00;;;;;;;4.13;1.23;;;;;;;10.23;86.88;96076.13;4401765;32;20235;-62
2022/10/04 07:18:30;;;;;;;0.90;0.90;;;;;;;10.44;86.45;96074.16;4329592;32;20215;-62
2022/10/04 07:21:04;;;;;;;0.33;0.33;;;;;;;10.06;88.00;96080.12;4348227;32;20196;-62
2022/10/04 07:23:52;;;;;;;3.23;1.30;;;;;;;10.20;88.24;96084.59;4294112;32;20185;-63
2022/10/04 07:26:55;;;;;;;1.60;1.50;;;;;;;10.16;89.01;96091.50;4338408;32;20270;-63
2022/10/04 07:29:27;;;;;;;6.53;1.63;;;;;;;10.18;89.38;96089.38;4341262;32;20189;-63
2022/10/04 07:32:20;;;;;;;3.93;1.70;;;;;;;10.19;89.41;96100.78;4333612;32;20192;-62
2022/10/04 07:35:13;;;;;;;0.67;0.67;;;;;;;10.24;89.82;96101.56;4398847;32;20338;-61
2022/10/04 07:38:04;;;;;;;1.87;0.90;;;;;;;10.28;89.91;96099.16;4382851;32;20203;-65
2022/10/04 07:40:38;;;;;;;0.80;0.80;;;;;;;10.43;89.43;96099.09;4379278;32;20271;-60
2022/10/04 07:43:25;;;;;;;0.87;0.87;;;;;;;10.63;89.19;96095.53;4386051;32;20247;-60
2022/10/04 07:46:26;;;;;;;0.60;0.60;;;;;;;10.75;88.80;96101.34;4376738;32;20222;-60
2022/10/04 07:48:54;;;;;;;1.63;1.53;;;;;;;10.88;88.09;96103.34;4351518;32;20180;-60
2022/10/04 07:52:03;;;;;;;1.40;1.03;;;;;;;10.85;88.02;96097.81;4398792;32;20189;-61
2022/10/04 07:55:27;;;;;;;2.33;2.13;;;;;;;11.00;87.99;96105.69;4382470;32;20184;-62
2022/10/04 07:58:17;;;;;;;1.77;1.17;;;;;;;11.22;87.47;96107.91;4309567;32;20242;-62
2022/10/04 08:01:23;;;;;;;2.20;1.00;;;;;;;11.27;86.85;96121.13;4339822;32;20316;-54
2022/10/04 08:04:19;;;;;;;1.37;1.27;;;;;;;13.49;92.75;96108.97;4309341;32;20193;-52
2022/10/04 08:06:55;;;;;;;1.10;0.93;;;;;;;14.31;84.31;96109.06;4355604;32;20203;-50
2022/10/04 08:10:02;;;;;;;1.40;1.30;;;;;;;15.31;79.56;96106.41;4310337;32;20189;-53
2022/10/04 08:12:49;;;;;;;1.47;1.40;;;;;;;15.59;75.07;96115.13;4368999;32;20258;-55
2022/10/04 08:15:40;;;;;;;6.20;1.90;;;;;;;15.92;73.92;96123.66;4379833;32;20282;-53
2022/10/04 08:18:21;;;;;;;0.80;0.80;;;;;;;15.99;73.15;96127.47;4386263;32;20282;-53
2022/10/04 08:21:15;;;;;;;1.13;1.13;;;;;;;16.26;72.28;96120.34;4389432;32;20247;-53
2022/10/04 08:23:56;;;;;;;1.47;1.37;;;;;;;16.46;71.09;96120.56;4372328;32;20251;-52
2022/10/04 08:27:07;;;;;;;1.10;1.10;;;;;;;16.66;69.79;96123.78;4325485;32;20230;-51
2022/10/04 08:30:12;;;;;;;1.30;1.20;;;;;;;16.59;69.74;96124.25;4361770;32;20203;-50
2022/10/04 08:33:23;;;;;;;0.63;0.63;;;;;;;15.79;69.78;96119.97;4329830;32;20187;-53
2022/10/04 08:36:08;;;;;;;1.03;0.77;;;;;;;15.93;71.52;96120.69;4385122;32;20187;-62
2022/10/04 08:38:45;;;;;;;2.87;1.20;;;;;;;15.26;70.49;96122.56;4365348;32;20229;-60
2022/10/04 08:41:55;;;;;;;0.50;0.50;;;;;;;14.21;74.59;96122.59;4394009;32;20235;-60
2022/10/04 08:45:00;;;;;;;1.27;1.27;;;;;;;13.90;76.41;96132.28;4372943;32;20188;-60
2022/10/04 08:47:49;;;;;;;1.33;1.23;;;;;;;13.59;78.39;96126.66;4351497;32;20242;-60
2022/10/04 08:50:45;;;;;;;1.03;1.03;;;;;;;13.30;79.76;96126.88;4385806;32;20220;-60
2022/10/04 08:53:57;;;;;;;0.70;0.70;;;;;;;13.23;80.60;96118.44;4395663;32;20218;-60
2022/10/04 08:56:59;;;;;;;1.13;0.93;;;;;;;13.06;81.68;96124.25;4379820;32;20206;-60
2022/10/04 08:59:47;;;;;;;0.77;0.77;;;;;;;12.94;82.43;96121.22;4392916;32;20192;-60
2022/10/04 09:02:52;;;;;;;0.80;0.80;;;;;;;12.95;83.08;96115.59;4381494;32;20188;-60
2022/10/04 09:05:59;;;;;;;0.73;0.67;;;;;;;12.89;83.52;96107.97;4343445;32;20191;-61
2022/10/04 09:09:04;;;;;;;1.53;1.27;;;;;;;13.13;82.79;96098.03;4373943;32;20188;-60
2022/10/04 09:11:51;;;;;;;0.57;0.57;;;;;;;13.07;83.32;96099.22;4340592;32;20189;-60
2022/10/04 09:14:30;;;;;;;0.83;0.80;;;;;;;13.20;83.28;96095.03;4385157;32;20184;-61
2022/10/04 09:17:38;;;;;;;1.23;1.00;;;;;;;13.41;81.99;96104.28;4397072;32;20184;-60
2022/10/04 09:20:20;;;;;;;0.90;0.90;;;;;;;13.32;83.21;96106.81;4386677;32;20183;-60
2022/10/04 09:23:05;;;;;;;1.87;1.43;;;;;;;13.43;82.28;96101.34;4366201;32;20282;-60
2022/10/04 09:26:05;;;;;;;1.53;1.43;;;;;;;13.45;81.88;96105.28;4359447;32;20188;-60
2022/10/04 09:29:07;;;;;;;1.20;1.17;;;;;;;13.49;82.10;96100.97;4387249;32;20225;-60
2022/10/04 09:32:15;;;;;;;0.50;0.50;;;;;;;13.60;81.27;96102.38;4374034;32;20295;-60
2022/10/04 09:35:18;;;;;;;2.93;1.33;;;;;;;13.68;80.61;96104.38;4369060;32;20234;-60
2022/10/04 09:38:41;;;;;;;1.07;1.07;;;;;;;13.71;79.85;96116.34;4406109;32;20188;-59
2022/10/04 09:41:40;;;;;;;0.73;0.73;;;;;;;13.69;79.30;96115.81;4334200;32;20181;-60
2022/10/04 09:44:44;;;;;;;0.90;0.90;;;;;;;13.70;79.35;96112.88;4346579;32;20261;-60
2022/10/04 09:47:45;;;;;;;0.50;0.50;;;;;;;13.82;79.78;96099.06;4313619;32;20203;-61
2022/10/04 09:50:55;;;;;;;0.50;0.50;;;;;;;13.93;79.28;96091.66;4291427;32;20235;-60
2022/10/04 09:53:45;;;;;;;1.07;0.97;;;;;;;13.99;78.78;96088.59;4313633;32;20240;-60
2022/10/04 09:56:49;;;;;;;1.83;0.60;;;;;;;13.96;78.54;96091.84;4347133;32;20204;-60
2022/10/04 10:00:08;;;;;;;1.40;1.10;;;;;;;13.99;79.55;96091.25;4385940;32;20202;-61
2022/10/04 10:03:19;;;;;;;1.95;0.50;;;;;;;14.05;78.45;96100.75;4337492;32;20311;-59
2022/10/04 10:06:08;;;;;;;0.83;0.63;;;;;;;14.05;78.49;96102.62;4334604;32;20353;-59
2022/10/04 10:09:01;;;;;;;5.47;0.83;;;;;;;14.06;78.19;96098.87;4351693;32;20188;-59
2022/10/04 10:15:11;;;;;;;0.90;0.90;;;;;;;14.15;77.43;96109.66;4363398;32;20215;-59
2022/10/04 10:18:13;;;;;;;0.97;0.97;;;;;;;14.18;78.27;96107.19;4371435;32;20207;-59
2022/10/04 10:21:17;;;;;;;0.50;0.50;;;;;;;14.26;78.25;96103.84;4323851;32;20188;-59
2022/10/04 10:24:18;;;;;;;1.53;1.43;;;;;;;14.25;77.18;96091.56;4380286;32;20184;-59
2022/10/04 10:27:23;;;;;;;0.70;0.70;;;;;;;14.24;77.81;96089.19;4380070;32;20343;-59
2022/10/04 10:30:04;;;;;;;2.70;1.00;;;;;;;14.34;78.32;96078.34;4372434;32;20254;-59
2022/10/04 10:32:35;;;;;;;0.97;0.97;;;;;;;14.31;78.36;96092.28;4387421;32;20226;-59
2022/10/04 10:35:23;;;;;;;1.07;1.03;;;;;;;14.43;78.59;96101.38;4401288;32;20229;-59
2022/10/04 10:38:08;;;;;;;0.77;0.77;;;;;;;14.52;77.98;96100.69;4396511;32;20226;-59
2022/10/04 10:40:51;;;;;;;0.70;0.70;;;;;;;14.53;75.93;96104.94;4368888;32;20196;-60
2022/10/04 10:44:06;;;;;;;1.00;1.00;;;;;;;14.57;76.72;96113.91;4391439;32;20256;-59
2022/10/04 10:47:00;;;;;;;3.30;2.40;;;;;;;14.44;76.72;96121.66;4372311;32;20210;-60
2022/10/04 10:49:59;;;;;;;1.20;1.10;;;;;;;14.52;76.65;96114.03;4354262;32;20202;-59
2022/10/04 10:52:53;;;;;;;0.60;0.60;;;;;;;14.54;76.65;96119.88;4393407;32;20297;-59
2022/10/04 10:56:08;;;;;;;1.43;0.90;;;;;;;14.56;76.23;96123.00;4381261;32;20222;-59
2022/10/04 10:59:10;;;;;;;0.90;0.90;;;;;;;14.63;76.09;96120.72;4364822;32;20187;-59
2022/10/04 11:02:04;;;;;;;0.77;0.77;;;;;;;14.68;75.27;96120.63;4368449;32;20240;-61
2022/10/04 11:04:54;;;;;;;4.43;1.73;;;;;;;14.62;75.50;96119.16;4396780;32;20192;-61
2022/10/04 11:07:41;;;;;;;3.73;3.53;;;;;;;14.56;75.82;96123.81;4385618;32;20227;-59
2022/10/04 11:11:03;;;;;;;1.30;1.30;;;;;;;14.71;75.11;96114.69;4353587;32;20259;-60
2022/10/04 11:13:56;;;;;;;2.37;2.17;;;;;;;14.78;74.98;96113.19;4372681;32;20192;-60
2022/10/04 11:17:00;;;;;;;0.93;0.93;;;;;;;14.87;73.58;96107.94;4376667;32;20275;-59
2022/10/04 11:19:59;;;;;;;0.97;0.97;;;;;;;14.96;74.07;96098.13;4358064;32;20262;-61
2022/10/04 11:22:48;;;;;;;3.03;1.67;;;;;;;14.95;74.19;96093.09;4380122;32;20305;-61
2022/10/04 11:25:49;;;;;;;3.80;1.73;;;;;;;14.92;72.12;96089.13;4347865;32;20305;-60
2022/10/04 11:28:59;;;;;;;8.73;7.83;;;;;;;15.04;73.05;96092.03;4379408;32;20184;-60
2022/10/04 11:32:24;;;;;;;6.67;5.80;;;;;;;14.95;73.32;96096.53;4381189;32;20275;-61
2022/10/04 11:35:26;;;;;;;18.83;10.87;;;;;;;14.96;73.08;96095.44;4324210;32;20216;-62
2022/10/04 11:38:29;;;;;;;5.10;4.73;;;;;;;14.95;72.51;96098.44;4326697;32;20256;-61
2022/10/04 11:41:27;;;;;;;5.53;4.50;;;;;;;14.97;71.48;96094.34;4337560;32;20277;-61
2022/10/04 11:44:29;;;;;;;11.63;2.30;;;;;;;15.06;71.79;96089.88;4283900;32;20192;-60
2022/10/04 11:47:23;;;;;;;0.73;0.73;;;;;;;15.13;73.08;96079.56;4351928;32;20183;-60
2022/10/04 11:50:01;;;;;;;0.70;0.70;;;;;;;15.15;71.75;96079.25;4363254;32;20233;-61
2022/10/04 11:52:55;;;;;;;0.63;0.63;;;;;;;15.14;71.23;96085.69;4388278;32;20192;-60
2022/10/04 11:56:07;;;;;;;1.80;0.87;;;;;;;15.12;72.10;96079.84;4387656;32;20184;-60
2022/10/04 11:58:51;;;;;;;0.60;0.60;;;;;;;15.17;72.82;96081.63;4379402;32;20179;-62
2022/10/04 12:01:57;;;;;;;1.50;0.77;;;;;;;15.26;73.14;96080.56;4400962;32;20220;-60
2022/10/04 12:05:00;;;;;;;4.00;1.47;;;;;;;15.29;72.44;96082.66;4357538;32;20191;-60
2022/10/04 12:07:49;;;;;;;0.90;0.90;;;;;;;15.33;72.68;96082.84;4340807;32;20196;-61
2022/10/04 12:10:31;;;;;;;2.30;1.37;;;;;;;15.25;72.07;96076.31;4364562;32;20211;-61
2022/10/04 12:13:17;;;;;;;1.73;0.80;;;;;;;15.35;71.07;96072.62;4370654;32;20210;-60
2022/10/04 12:15:55;;;;;;;0.80;0.80;;;;;;;15.33;72.14;96070.25;4394608;32;20224;-61
2022/10/04 12:18:51;;;;;;;0.73;0.73;;;;;;;15.59;73.25;96064.31;4383865;32;20200;-60
2022/10/04 12:21:39;;;;;;;1.63;1.53;;;;;;;15.51;72.12;96063.13;4365121;32;20234;-60
2022/10/04 12:24:32;;;;;;;0.80;0.80;;;;;;;15.67;70.65;96059.00;4368645;32;20185;-60
2022/10/04 12:27:44;;;;;;;1.03;0.93;;;;;;;15.74;71.02;96062.03;4391773;32;20232;-59
2022/10/04 12:30:38;;;;;;;0.50;0.50;;;;;;;15.69;72.59;96054.13;4353554;32;20250;-61
2022/10/04 12:33:14;;;;;;;0.37;0.37;;;;;;;15.82;70.81;96047.88;4391809;32;20184;-60
2022/10/04 12:36:11;;;;;;;0.80;0.80;;;;;;;15.87;70.47;96043.50;4393467;32;20175;-60
2022/10/04 12:39:16;;;;;;;1.10;1.00;;;;;;;15.91;69.93;96045.25;4358842;32;20189;-62
2022/10/04 12:42:20;;;;;;;0.53;0.53;;;;;;;15.89;70.20;96035.94;4366418;32;20268;-61
2022/10/04 12:45:18;;;;;;;0.83;0.83;;;;;;;15.80;71.04;96035.91;4344156;32;20258;-60
2022/10/04 12:48:13;;;;;;;1.23;1.10;;;;;;;15.79;69.74;96045.06;4371973;32;20241;-62
2022/10/04 12:51:08;;;;;;;0.70;0.70;;;;;;;15.92;68.81;96048.72;4385788;32;20247;-61
2022/10/04 12:53:50;;;;;;;1.40;0.80;;;;;;;15.90;67.77;96042.88;4388326;32;20188;-62
2022/10/04 12:56:38;;;;;;;0.73;0.73;;;;;;;15.82;67.40;96050.56;4380377;32;20194;-61
2022/10/04 12:59:33;;;;;;;0.53;0.53;;;;;;;15.78;68.23;96046.94;4365783;32;20247;-61
2022/10/04 13:02:20;;;;;;;0.50;0.50;;;;;;;15.76;68.54;96043.00;4388222;32;20189;-60
2022/10/04 13:05:18;;;;;;;7.13;0.90;;;;;;;15.75;68.37;96042.22;4376017;32;20239;-62
2022/10/04 13:08:17;;;;;;;3.60;0.80;;;;;;;15.65;68.40;96041.66;4394682;32;20267;-62
2022/10/04 13:10:59;;;;;;;9.03;0.93;;;;;;;15.59;68.86;96041.00;4342560;32;20206;-61
2022/10/04 13:13:55;;;;;;;0.73;0.73;;;;;;;15.59;69.09;96027.63;4376883;32;20184;-61
2022/10/04 13:17:02;;;;;;;0.73;0.73;;;;;;;15.57;69.95;96024.50;4383397;32;20185;-61
2022/10/04 13:19:38;;;;;;;1.63;1.40;;;;;;;15.48;71.39;96021.75;4326258;32;20193;-62